sensor_id;sensor_type;location;lat;lon;timestamp;pressure;altitude;pressure_sealevel;temperature;humidity
9893;BME280;4985;49.092;8.542;2023-12-14T00:00:09;98258.53;;;15.89;50.74
9893;BME280;4985;49.092;8.542;2023-12-14T00:02:35;98261.97;;;15.90;50.80
9893;BME280;4985;49.092;8.542;2023-12-14T00:05:00;98272.59;;;15.90;50.72
9893;BME280;4985;49.092;8.542;2023-12-14T00:07:26;98272.81;;;15.88;50.74
9893;BME280;4985;49.092;8.542;2023-12-14T00:09:51;98272.81;;;15.88;50.83
9893;BME280;4985;49.092;8.542;2023-12-14T00:12:16;98274.44;;;15.89;50.62
9893;BME280;4985;49.092;8.542;2023-12-14T00:14:42;98276.28;;;15.89;50.63
9893;BME280;4985;49.092;8.542;2023-12-14T00:17:07;98278.94;;;15.89;50.85
9893;BME280;4985;49.092;8.542;2023-12-14T00:19:32;98286.91;;;15.89;50.45
9893;BME280;4985;49.092;8.542;2023-12-14T00:21:58;98290.38;;;15.89;50.48
9893;BME280;4985;49.092;8.542;2023-12-14T00:24:23;98294.06;;;15.88;50.44
9893;BME280;4985;49.092;8.542;2023-12-14T00:26:48;98299.34;;;15.88;50.73
9893;BME280;4985;49.092;8.542;2023-12-14T00:29:14;98293.25;;;15.88;50.78
9893;BME280;4985;49.092;8.542;2023-12-14T00:31:39;98302.00;;;15.88;50.61
9893;BME280;4985;49.092;8.542;2023-12-14T00:34:04;98305.47;;;15.89;50.58
9893;BME280;4985;49.092;8.542;2023-12-14T00:36:31;98309.97;;;15.88;50.63
9893;BME280;4985;49.092;8.542;2023-12-14T00:38:56;98308.13;;;15.89;50.71
9893;BME280;4985;49.092;8.542;2023-12-14T00:41:22;98315.06;;;15.90;50.31
9893;BME280;4985;49.092;8.542;2023-12-14T00:43:47;98317.13;;;15.88;50.62
9893;BME280;4985;49.092;8.542;2023-12-14T00:46:12;98314.47;;;15.88;50.92
9893;BME280;4985;49.092;8.542;2023-12-14T00:48:38;98314.47;;;15.88;50.50
9893;BME280;4985;49.092;8.542;2023-12-14T00:51:04;98318.16;;;15.87;50.76
9893;BME280;4985;49.092;8.542;2023-12-14T00:53:29;98314.47;;;15.88;50.57
9893;BME280;4985;49.092;8.542;2023-12-14T00:55:54;98328.78;;;15.87;50.78
9893;BME280;4985;49.092;8.542;2023-12-14T00:58:20;98332.25;;;15.87;50.45
9893;BME280;4985;49.092;8.542;2023-12-14T01:00:45;98338.34;;;15.88;50.49
9893;BME280;4985;49.092;8.542;2023-12-14T01:03:11;98347.34;;;15.87;50.86
9893;BME280;4985;49.092;8.542;2023-12-14T01:05:36;98348.16;;;15.87;50.80
9893;BME280;4985;49.092;8.542;2023-12-14T01:08:02;98345.72;;;15.86;50.82
9893;BME280;4985;49.092;8.542;2023-12-14T01:10:27;98351.84;;;15.86;50.56
9893;BME280;4985;49.092;8.542;2023-12-14T01:12:52;98365.13;;;15.86;50.54
9893;BME280;4985;49.092;8.542;2023-12-14T01:15:18;98367.78;;;15.86;50.56
9893;BME280;4985;49.092;8.542;2023-12-14T01:17:43;98380.22;;;15.86;50.52
9893;BME280;4985;49.092;8.542;2023-12-14T01:20:09;98374.94;;;15.86;50.61
9893;BME280;4985;49.092;8.542;2023-12-14T01:22:34;98389.00;;;15.86;50.83
9893;BME280;4985;49.092;8.542;2023-12-14T01:25:00;98392.47;;;15.87;50.67
9893;BME280;4985;49.092;8.542;2023-12-14T01:27:25;98389.00;;;15.86;50.49
9893;BME280;4985;49.092;8.542;2023-12-14T01:29:51;98396.16;;;15.86;50.66
9893;BME280;4985;49.092;8.542;2023-12-14T01:32:16;98393.50;;;15.86;50.45
9893;BME280;4985;49.092;8.542;2023-12-14T01:34:41;98406.78;;;15.86;50.79
9893;BME280;4985;49.092;8.542;2023-12-14T01:37:07;98410.22;;;15.86;50.71
9893;BME280;4985;49.092;8.542;2023-12-14T01:39:32;98413.88;;;15.85;50.41
9893;BME280;4985;49.092;8.542;2023-12-14T01:41:58;98421.84;;;15.85;50.48
9893;BME280;4985;49.092;8.542;2023-12-14T01:44:23;98416.53;;;15.85;50.63
9893;BME280;4985;49.092;8.542;2023-12-14T01:46:49;98422.06;;;15.84;50.46
9893;BME280;4985;49.092;8.542;2023-12-14T01:49:14;98420.22;;;15.84;50.81
9893;BME280;4985;49.092;8.542;2023-12-14T01:51:39;98427.16;;;15.85;50.46
9893;BME280;4985;49.092;8.542;2023-12-14T01:54:05;98433.31;;;15.86;50.42
9893;BME280;4985;49.092;8.542;2023-12-14T01:56:30;98432.28;;;15.87;50.67
9893;BME280;4985;49.092;8.542;2023-12-14T01:58:55;98435.75;;;15.87;50.75
9893;BME280;4985;49.092;8.542;2023-12-14T02:01:42;98441.03;;;15.87;50.58
9893;BME280;4985;49.092;8.542;2023-12-14T02:04:08;98438.41;;;15.87;50.71
9893;BME280;4985;49.092;8.542;2023-12-14T02:06:34;98443.69;;;15.87;50.82
9893;BME280;4985;49.092;8.542;2023-12-14T02:08:59;98449.81;;;15.88;50.67
9893;BME280;4985;49.092;8.542;2023-12-14T02:11:25;98458.59;;;15.88;50.58
9893;BME280;4985;49.092;8.542;2023-12-14T02:13:50;98453.50;;;15.87;50.36
9893;BME280;4985;49.092;8.542;2023-12-14T02:16:15;98456.16;;;15.87;50.49
9893;BME280;4985;49.092;8.542;2023-12-14T02:18:41;98456.16;;;15.87;50.33
9893;BME280;4985;49.092;8.542;2023-12-14T02:21:06;98455.13;;;15.88;50.32
9893;BME280;4985;49.092;8.542;2023-12-14T02:23:32;98456.97;;;15.87;50.57
9893;BME280;4985;49.092;8.542;2023-12-14T02:25:57;98456.97;;;15.87;50.27
9893;BME280;4985;49.092;8.542;2023-12-14T02:28:22;98462.28;;;15.87;50.63
9893;BME280;4985;49.092;8.542;2023-12-14T02:30:48;98457.78;;;15.88;50.59
9893;BME280;4985;49.092;8.542;2023-12-14T02:33:13;98466.78;;;15.87;50.76
9893;BME280;4985;49.092;8.542;2023-12-14T02:35:38;98465.97;;;15.86;50.60
9893;BME280;4985;49.092;8.542;2023-12-14T02:38:04;98461.47;;;15.87;50.34
9893;BME280;4985;49.092;8.542;2023-12-14T02:40:29;98465.97;;;15.86;50.41
9893;BME280;4985;49.092;8.542;2023-12-14T02:42:54;98473.94;;;15.86;50.24
9893;BME280;4985;49.092;8.542;2023-12-14T02:45:20;98473.94;;;15.86;50.50
9893;BME280;4985;49.092;8.542;2023-12-14T02:47:45;98478.44;;;15.86;50.40
9893;BME280;4985;49.092;8.542;2023-12-14T02:50:13;98486.38;;;15.86;50.65
9893;BME280;4985;49.092;8.542;2023-12-14T02:52:38;98493.31;;;15.87;50.68
9893;BME280;4985;49.092;8.542;2023-12-14T02:55:04;98491.69;;;15.86;50.26
9893;BME280;4985;49.092;8.542;2023-12-14T02:57:29;98500.47;;;15.86;50.49
9893;BME280;4985;49.092;8.542;2023-12-14T02:59:54;98498.81;;;15.85;50.46
9893;BME280;4985;49.092;8.542;2023-12-14T03:02:20;98498.81;;;15.85;50.44
9893;BME280;4985;49.092;8.542;2023-12-14T03:04:45;98505.97;;;15.85;50.76
9893;BME280;4985;49.092;8.542;2023-12-14T03:07:10;98507.63;;;15.86;50.31
9893;BME280;4985;49.092;8.542;2023-12-14T03:09:39;98509.44;;;15.85;50.34
9893;BME280;4985;49.092;8.542;2023-12-14T03:12:06;98516.56;;;15.85;50.53
9893;BME280;4985;49.092;8.542;2023-12-14T03:14:32;98516.56;;;15.85;50.73
9893;BME280;4985;49.092;8.542;2023-12-14T03:16:59;98522.69;;;15.85;50.62
9893;BME280;4985;49.092;8.542;2023-12-14T03:19:24;98528.00;;;15.85;50.57
9893;BME280;4985;49.092;8.542;2023-12-14T03:21:49;98527.19;;;15.85;50.42
9893;BME280;4985;49.092;8.542;2023-12-14T03:24:15;98527.19;;;15.85;50.75
9893;BME280;4985;49.092;8.542;2023-12-14T03:26:40;98535.16;;;15.85;50.27
9893;BME280;4985;49.092;8.542;2023-12-14T03:29:06;98539.66;;;15.84;50.75
9893;BME280;4985;49.092;8.542;2023-12-14T03:31:33;98533.53;;;15.84;50.56
9893;BME280;4985;49.092;8.542;2023-12-14T03:33:58;98538.84;;;15.84;50.53
9893;BME280;4985;49.092;8.542;2023-12-14T03:36:24;98541.50;;;15.84;50.37
9893;BME280;4985;49.092;8.542;2023-12-14T03:38:51;98547.63;;;15.84;50.66
9893;BME280;4985;49.092;8.542;2023-12-14T03:41:17;98552.91;;;15.84;50.47
9893;BME280;4985;49.092;8.542;2023-12-14T03:43:42;98550.47;;;15.83;50.37
9893;BME280;4985;49.092;8.542;2023-12-14T03:46:08;98548.66;;;15.83;50.78
9893;BME280;4985;49.092;8.542;2023-12-14T03:48:33;98553.13;;;15.83;50.63
9893;BME280;4985;49.092;8.542;2023-12-14T03:51:04;98561.09;;;15.83;50.54
9893;BME280;4985;49.092;8.542;2023-12-14T03:53:30;98559.47;;;15.82;50.30
9893;BME280;4985;49.092;8.542;2023-12-14T03:55:57;98567.44;;;15.82;50.59
9893;BME280;4985;49.092;8.542;2023-12-14T03:58:23;98572.75;;;15.82;50.58
9893;BME280;4985;49.092;8.542;2023-12-14T04:00:48;98581.72;;;15.81;50.64
9893;BME280;4985;49.092;8.542;2023-12-14T04:03:13;98587.03;;;15.81;50.77
9893;BME280;4985;49.092;8.542;2023-12-14T04:05:39;98596.63;;;15.82;50.52
9893;BME280;4985;49.092;8.542;2023-12-14T04:08:04;98595.00;;;15.81;50.77
9893;BME280;4985;49.092;8.542;2023-12-14T04:10:30;98607.47;;;15.80;50.47
9893;BME280;4985;49.092;8.542;2023-12-14T04:12:55;98608.28;;;15.81;50.69
9893;BME280;4985;49.092;8.542;2023-12-14T04:15:21;98610.94;;;15.81;50.37
9893;BME280;4985;49.092;8.542;2023-12-14T04:17:46;98619.91;;;15.80;50.27
9893;BME280;4985;49.092;8.542;2023-12-14T04:20:13;98612.78;;;15.80;50.71
9893;BME280;4985;49.092;8.542;2023-12-14T04:22:39;98616.22;;;15.81;50.54
9893;BME280;4985;49.092;8.542;2023-12-14T04:25:05;98632.16;;;15.81;50.56
9893;BME280;4985;49.092;8.542;2023-12-14T04:27:30;98622.56;;;15.80;50.75
9893;BME280;4985;49.092;8.542;2023-12-14T04:29:55;98630.53;;;15.80;50.52
9893;BME280;4985;49.092;8.542;2023-12-14T04:32:21;98635.03;;;15.79;50.85
9893;BME280;4985;49.092;8.542;2023-12-14T04:34:47;98634.22;;;15.79;50.36
9893;BME280;4985;49.092;8.542;2023-12-14T04:37:12;98641.56;;;15.77;50.63
9893;BME280;4985;49.092;8.542;2023-12-14T04:39:37;98642.19;;;15.79;50.87
9893;BME280;4985;49.092;8.542;2023-12-14T04:42:03;98647.47;;;15.79;50.80
9893;BME280;4985;49.092;8.542;2023-12-14T04:44:28;98650.94;;;15.79;50.64
9893;BME280;4985;49.092;8.542;2023-12-14T04:46:54;98649.31;;;15.78;50.69
9893;BME280;4985;49.092;8.542;2023-12-14T04:49:19;98653.59;;;15.79;50.84
9893;BME280;4985;49.092;8.542;2023-12-14T04:51:45;98654.41;;;15.80;50.43
9893;BME280;4985;49.092;8.542;2023-12-14T04:54:10;98663.19;;;15.80;50.59
9893;BME280;4985;49.092;8.542;2023-12-14T04:56:35;98667.69;;;15.80;50.59
9893;BME280;4985;49.092;8.542;2023-12-14T04:59:01;98667.69;;;15.80;50.88
9893;BME280;4985;49.092;8.542;2023-12-14T05:01:26;98667.69;;;15.80;50.49
9893;BME280;4985;49.092;8.542;2023-12-14T05:03:55;98678.28;;;15.80;50.47
9893;BME280;4985;49.092;8.542;2023-12-14T05:06:21;98678.28;;;15.80;50.85
9893;BME280;4985;49.092;8.542;2023-12-14T05:08:47;98691.56;;;15.80;50.62
9893;BME280;4985;49.092;8.542;2023-12-14T05:11:13;98693.41;;;15.79;50.89
9893;BME280;4985;49.092;8.542;2023-12-14T05:13:38;98695.03;;;15.80;50.82
9893;BME280;4985;49.092;8.542;2023-12-14T05:16:04;98704.84;;;15.80;50.87
9893;BME280;4985;49.092;8.542;2023-12-14T05:18:29;98709.34;;;15.79;50.78
9893;BME280;4985;49.092;8.542;2023-12-14T05:20:55;98718.31;;;15.78;50.22
9893;BME280;4985;49.092;8.542;2023-12-14T05:23:20;98725.25;;;15.79;50.45
9893;BME280;4985;49.092;8.542;2023-12-14T05:25:46;98722.59;;;15.79;50.48
9893;BME280;4985;49.092;8.542;2023-12-14T05:28:11;98736.69;;;15.80;50.96
9893;BME280;4985;49.092;8.542;2023-12-14T05:30:36;98740.38;;;15.79;50.69
9893;BME280;4985;49.092;8.542;2023-12-14T05:33:02;98738.53;;;15.79;50.61
9893;BME280;4985;49.092;8.542;2023-12-14T05:35:27;98749.94;;;15.80;50.76
9893;BME280;4985;49.092;8.542;2023-12-14T05:37:53;98755.25;;;15.80;50.31
9893;BME280;4985;49.092;8.542;2023-12-14T05:40:18;98751.78;;;15.79;50.69
9893;BME280;4985;49.092;8.542;2023-12-14T05:42:44;98749.94;;;15.80;50.62
9893;BME280;4985;49.092;8.542;2023-12-14T05:45:09;98757.91;;;15.80;50.42
9893;BME280;4985;49.092;8.542;2023-12-14T05:47:35;98757.09;;;15.79;50.70
9893;BME280;4985;49.092;8.542;2023-12-14T05:50:01;98757.91;;;15.80;50.67
9893;BME280;4985;49.092;8.542;2023-12-14T05:52:27;98762.41;;;15.79;50.40
9893;BME280;4985;49.092;8.542;2023-12-14T05:54:52;98763.22;;;15.80;50.39
9893;BME280;4985;49.092;8.542;2023-12-14T05:57:18;98777.50;;;15.79;50.58
9893;BME280;4985;49.092;8.542;2023-12-14T05:59:43;98777.50;;;15.79;50.34
9893;BME280;4985;49.092;8.542;2023-12-14T06:02:09;98772.41;;;15.77;50.38
9893;BME280;4985;49.092;8.542;2023-12-14T06:04:34;98782.81;;;15.79;50.45
9893;BME280;4985;49.092;8.542;2023-12-14T06:06:59;98786.50;;;15.78;50.48
9893;BME280;4985;49.092;8.542;2023-12-14T06:09:25;98787.53;;;15.77;50.68
9893;BME280;4985;49.092;8.542;2023-12-14T06:11:58;98791.00;;;15.77;50.66
9893;BME280;4985;49.092;8.542;2023-12-14T06:14:24;98804.25;;;15.77;50.69
9893;BME280;4985;49.092;8.542;2023-12-14T06:16:49;98799.78;;;15.78;50.58
9893;BME280;4985;49.092;8.542;2023-12-14T06:19:15;98811.19;;;15.78;50.73
9893;BME280;4985;49.092;8.542;2023-12-14T06:21:40;98812.22;;;15.77;50.83
9893;BME280;4985;49.092;8.542;2023-12-14T06:24:06;98821.81;;;15.78;50.83
9893;BME280;4985;49.092;8.542;2023-12-14T06:26:31;98839.56;;;15.78;50.82
9893;BME280;4985;49.092;8.542;2023-12-14T06:28:56;98831.81;;;15.76;50.75
9893;BME280;4985;49.092;8.542;2023-12-14T06:31:22;98840.59;;;15.77;50.56
9893;BME280;4985;49.092;8.542;2023-12-14T06:33:48;98833.66;;;15.76;50.52
9893;BME280;4985;49.092;8.542;2023-12-14T06:36:16;98843.25;;;15.77;50.83
9893;BME280;4985;49.092;8.542;2023-12-14T06:38:43;98846.94;;;15.76;50.63
9893;BME280;4985;49.092;8.542;2023-12-14T06:41:08;98850.63;;;15.75;50.76
9893;BME280;4985;49.092;8.542;2023-12-14T06:43:34;98848.97;;;15.73;50.80
9893;BME280;4985;49.092;8.542;2023-12-14T06:46:00;98858.56;;;15.75;50.72
9893;BME280;4985;49.092;8.542;2023-12-14T06:48:25;98852.25;;;15.76;50.90
9893;BME280;4985;49.092;8.542;2023-12-14T06:50:50;98857.56;;;15.76;50.81
9893;BME280;4985;49.092;8.542;2023-12-14T06:53:16;98868.97;;;15.76;50.45
9893;BME280;4985;49.092;8.542;2023-12-14T06:55:41;98868.97;;;15.76;50.85
9893;BME280;4985;49.092;8.542;2023-12-14T06:58:07;98874.28;;;15.76;50.41
9893;BME280;4985;49.092;8.542;2023-12-14T07:00:37;98887.56;;;15.76;50.69
9893;BME280;4985;49.092;8.542;2023-12-14T07:03:02;98896.34;;;15.77;50.38
9893;BME280;4985;49.092;8.542;2023-12-14T07:05:28;98902.44;;;15.77;50.79
9893;BME280;4985;49.092;8.542;2023-12-14T07:07:54;98902.44;;;15.77;50.58
9893;BME280;4985;49.092;8.542;2023-12-14T07:10:19;98908.78;;;15.76;50.66
9893;BME280;4985;49.092;8.542;2023-12-14T07:12:45;98921.03;;;15.77;50.51
9893;BME280;4985;49.092;8.542;2023-12-14T07:15:10;98924.50;;;15.78;50.38
9893;BME280;4985;49.092;8.542;2023-12-14T07:17:35;98931.66;;;15.77;50.51
9893;BME280;4985;49.092;8.542;2023-12-14T07:20:01;98933.47;;;15.77;50.77
9893;BME280;4985;49.092;8.542;2023-12-14T07:22:26;98932.66;;;15.76;50.50
9893;BME280;4985;49.092;8.542;2023-12-14T07:24:51;98937.16;;;15.76;50.47
9893;BME280;4985;49.092;8.542;2023-12-14T07:27:17;98935.53;;;15.75;50.65
9893;BME280;4985;49.092;8.542;2023-12-14T07:29:42;98938.19;;;15.75;50.58
9893;BME280;4985;49.092;8.542;2023-12-14T07:32:07;98942.47;;;15.76;50.69
9893;BME280;4985;49.092;8.542;2023-12-14T07:34:33;98951.47;;;15.75;50.70
9893;BME280;4985;49.092;8.542;2023-12-14T07:36:58;98962.06;;;15.75;50.62
9893;BME280;4985;49.092;8.542;2023-12-14T07:39:25;98962.88;;;15.75;50.61
9893;BME280;4985;49.092;8.542;2023-12-14T07:41:51;98960.22;;;15.75;50.61
9893;BME280;4985;49.092;8.542;2023-12-14T07:44:16;98964.50;;;15.76;50.77
9893;BME280;4985;49.092;8.542;2023-12-14T07:46:41;98962.88;;;15.75;50.51
9893;BME280;4985;49.092;8.542;2023-12-14T07:49:08;98979.63;;;15.76;50.63
9893;BME280;4985;49.092;8.542;2023-12-14T07:51:33;98982.28;;;15.76;50.38
9893;BME280;4985;49.092;8.542;2023-12-14T07:53:59;98984.94;;;15.76;50.46
9893;BME280;4985;49.092;8.542;2023-12-14T07:56:24;98991.06;;;15.76;50.43
9893;BME280;4985;49.092;8.542;2023-12-14T07:58:52;98990.25;;;15.76;50.57
9893;BME280;4985;49.092;8.542;2023-12-14T08:01:18;98994.72;;;15.75;50.60
9893;BME280;4985;49.092;8.542;2023-12-14T08:03:43;99009.84;;;15.75;50.63
9893;BME280;4985;49.092;8.542;2023-12-14T08:06:08;99015.97;;;15.75;50.71
9893;BME280;4985;49.092;8.542;2023-12-14T08:08:34;99023.09;;;15.75;50.65
9893;BME280;4985;49.092;8.542;2023-12-14T08:10:59;99023.09;;;15.75;50.37
9893;BME280;4985;49.092;8.542;2023-12-14T08:13:24;99031.06;;;15.75;50.63
9893;BME280;4985;49.092;8.542;2023-12-14T08:15:49;99035.53;;;15.74;50.50
9893;BME280;4985;49.092;8.542;2023-12-14T08:18:15;99034.72;;;15.73;50.41
9893;BME280;4985;49.092;8.542;2023-12-14T08:20:41;99039.22;;;15.73;50.70
9893;BME280;4985;49.092;8.542;2023-12-14T08:23:06;99042.66;;;15.73;50.71
9893;BME280;4985;49.092;8.542;2023-12-14T08:25:32;99044.50;;;15.73;50.57
9893;BME280;4985;49.092;8.542;2023-12-14T08:27:57;99055.13;;;15.73;50.43
9893;BME280;4985;49.092;8.542;2023-12-14T08:30:23;99066.56;;;15.73;50.85
9893;BME280;4985;49.092;8.542;2023-12-14T08:32:49;99068.41;;;15.73;50.72
9893;BME280;4985;49.092;8.542;2023-12-14T08:35:14;99073.69;;;15.73;50.70
9893;BME280;4985;49.092;8.542;2023-12-14T08:37:39;99074.72;;;15.72;50.82
9893;BME280;4985;49.092;8.542;2023-12-14T08:40:05;99087.19;;;15.71;50.85
9893;BME280;4985;49.092;8.542;2023-12-14T08:42:31;99091.47;;;15.72;50.99
9893;BME280;4985;49.092;8.542;2023-12-14T08:44:56;99091.47;;;15.72;50.71
9893;BME280;4985;49.092;8.542;2023-12-14T08:47:22;99095.13;;;15.71;50.77
9893;BME280;4985;49.092;8.542;2023-12-14T08:49:47;99099.44;;;15.72;50.48
9893;BME280;4985;49.092;8.542;2023-12-14T08:52:12;99107.38;;;15.72;50.92
9893;BME280;4985;49.092;8.542;2023-12-14T08:54:39;99107.38;;;15.72;50.90
9893;BME280;4985;49.092;8.542;2023-12-14T08:57:04;99114.53;;;15.72;50.79
9893;BME280;4985;49.092;8.542;2023-12-14T08:59:30;99121.69;;;15.71;50.88
9893;BME280;4985;49.092;8.542;2023-12-14T09:01:55;99123.31;;;15.72;50.73
9893;BME280;4985;49.092;8.542;2023-12-14T09:04:21;99130.44;;;15.72;50.80
9893;BME280;4985;49.092;8.542;2023-12-14T09:06:46;99130.44;;;15.72;50.78
9893;BME280;4985;49.092;8.542;2023-12-14T09:09:11;99139.22;;;15.72;50.96
9893;BME280;4985;49.092;8.542;2023-12-14T09:11:37;99142.91;;;15.71;50.75
9893;BME280;4985;49.092;8.542;2023-12-14T09:14:03;99144.75;;;15.71;50.82
9893;BME280;4985;49.092;8.542;2023-12-14T09:16:28;99158.81;;;15.71;50.98
9893;BME280;4985;49.092;8.542;2023-12-14T09:18:53;99157.19;;;15.70;50.69
9893;BME280;4985;49.092;8.542;2023-12-14T09:21:19;99165.16;;;15.70;50.55
9893;BME280;4985;49.092;8.542;2023-12-14T09:23:44;99172.91;;;15.72;50.85
9893;BME280;4985;49.092;8.542;2023-12-14T09:26:09;99169.44;;;15.71;50.66
9893;BME280;4985;49.092;8.542;2023-12-14T09:28:35;99173.94;;;15.71;50.79
9893;BME280;4985;49.092;8.542;2023-12-14T09:31:02;99181.06;;;15.70;50.92
9893;BME280;4985;49.092;8.542;2023-12-14T09:33:27;99181.69;;;15.72;50.64
9893;BME280;4985;49.092;8.542;2023-12-14T09:35:53;99191.50;;;15.72;50.76
9893;BME280;4985;49.092;8.542;2023-12-14T09:38:18;99185.38;;;15.71;50.88
9893;BME280;4985;49.092;8.542;2023-12-14T09:40:44;99193.13;;;15.73;50.56
9893;BME280;4985;49.092;8.542;2023-12-14T09:43:10;99200.25;;;15.72;50.55
9893;BME280;4985;49.092;8.542;2023-12-14T09:45:38;99204.56;;;15.73;50.89
9893;BME280;4985;49.092;8.542;2023-12-14T09:48:06;99209.88;;;15.73;51.02
9893;BME280;4985;49.092;8.542;2023-12-14T09:50:32;99219.66;;;15.73;50.66
9893;BME280;4985;49.092;8.542;2023-12-14T09:52:59;99224.97;;;15.73;50.70
9893;BME280;4985;49.092;8.542;2023-12-14T09:55:24;99226.81;;;15.72;50.68
9893;BME280;4985;49.092;8.542;2023-12-14T09:57:49;99224.34;;;15.71;51.08
9893;BME280;4985;49.092;8.542;2023-12-14T10:00:32;99233.13;;;15.71;50.74
9893;BME280;4985;49.092;8.542;2023-12-14T10:03:17;99226.81;;;15.72;50.62
9893;BME280;4985;49.092;8.542;2023-12-14T10:05:43;99238.44;;;15.71;51.05
9893;BME280;4985;49.092;8.542;2023-12-14T10:08:09;99232.13;;;15.72;50.55
9893;BME280;4985;49.092;8.542;2023-12-14T10:10:34;99244.56;;;15.72;50.88
9893;BME280;4985;49.092;8.542;2023-12-14T10:12:59;99243.56;;;15.73;50.81
9893;BME280;4985;49.092;8.542;2023-12-14T10:15:26;99241.91;;;15.72;50.81
9893;BME280;4985;49.092;8.542;2023-12-14T10:17:52;99243.38;;;15.75;50.95
9893;BME280;4985;49.092;8.542;2023-12-14T10:20:22;99254.00;;;15.75;50.97
9893;BME280;4985;49.092;8.542;2023-12-14T10:22:50;99251.13;;;15.76;50.72
9893;BME280;4985;49.092;8.542;2023-12-14T10:25:18;99251.13;;;15.76;50.70
9893;BME280;4985;49.092;8.542;2023-12-14T10:27:46;99254.63;;;15.77;50.82
9893;BME280;4985;49.092;8.542;2023-12-14T10:30:13;99259.91;;;15.77;50.56
9893;BME280;4985;49.092;8.542;2023-12-14T10:32:38;99263.38;;;15.77;50.67
9893;BME280;4985;49.092;8.542;2023-12-14T10:35:06;99262.56;;;15.77;50.73
9893;BME280;4985;49.092;8.542;2023-12-14T10:37:32;99256.44;;;15.76;50.88
9893;BME280;4985;49.092;8.542;2023-12-14T10:40:01;99260.94;;;15.76;50.86
9893;BME280;4985;49.092;8.542;2023-12-14T10:42:28;99262.56;;;15.77;50.99
9893;BME280;4985;49.092;8.542;2023-12-14T10:44:54;99263.59;;;15.76;51.12
9893;BME280;4985;49.092;8.542;2023-12-14T10:47:20;99264.59;;;15.75;50.79
9893;BME280;4985;49.092;8.542;2023-12-14T10:49:50;99268.91;;;15.76;50.86
9893;BME280;4985;49.092;8.542;2023-12-14T10:52:16;99270.72;;;15.75;51.00
9893;BME280;4985;49.092;8.542;2023-12-14T10:54:42;99266.25;;;15.76;50.85
9893;BME280;4985;49.092;8.542;2023-12-14T10:57:09;99271.72;;;15.74;51.01
9893;BME280;4985;49.092;8.542;2023-12-14T10:59:34;99281.34;;;15.75;51.14
9893;BME280;4985;49.092;8.542;2023-12-14T11:02:07;99282.34;;;15.74;50.99
9893;BME280;4985;49.092;8.542;2023-12-14T11:04:57;99285.84;;;15.75;51.15
9893;BME280;4985;49.092;8.542;2023-12-14T11:10:36;99285.19;;;15.72;50.96
9893;BME280;4985;49.092;8.542;2023-12-14T11:13:04;99289.69;;;15.72;51.22
9893;BME280;4985;49.092;8.542;2023-12-14T11:15:33;99296.63;;;15.73;50.81
9893;BME280;4985;49.092;8.542;2023-12-14T11:25:57;99313.75;;;15.70;50.78
9893;BME280;4985;49.092;8.542;2023-12-14T11:28:22;99321.72;;;15.70;50.75
9893;BME280;4985;49.092;8.542;2023-12-14T11:30:48;99325.00;;;15.72;51.01
9893;BME280;4985;49.092;8.542;2023-12-14T11:33:14;99325.00;;;15.72;50.96
9893;BME280;4985;49.092;8.542;2023-12-14T11:35:40;99329.28;;;15.73;50.78
9893;BME280;4985;49.092;8.542;2023-12-14T11:38:06;99330.09;;;15.74;51.05
9893;BME280;4985;49.092;8.542;2023-12-14T11:40:44;99331.78;;;15.75;50.91
9893;BME280;4985;49.092;8.542;2023-12-14T11:43:10;99344.22;;;15.75;50.67
9893;BME280;4985;49.092;8.542;2023-12-14T11:45:37;99350.34;;;15.75;50.72
9893;BME280;4985;49.092;8.542;2023-12-14T11:48:06;99348.53;;;15.76;50.59
9893;BME280;4985;49.092;8.542;2023-12-14T11:50:32;99345.88;;;15.76;51.01
9893;BME280;4985;49.092;8.542;2023-12-14T11:53:01;99354.66;;;15.76;50.99
9893;BME280;4985;49.092;8.542;2023-12-14T11:55:29;99349.34;;;15.76;50.78
9893;BME280;4985;49.092;8.542;2023-12-14T11:57:55;99344.66;;;15.78;50.64
9893;BME280;4985;49.092;8.542;2023-12-14T12:00:25;99353.63;;;15.77;51.03
9893;BME280;4985;49.092;8.542;2023-12-14T12:02:51;99355.47;;;15.77;50.97
9893;BME280;4985;49.092;8.542;2023-12-14T12:05:16;99360.78;;;15.77;50.67
9893;BME280;4985;49.092;8.542;2023-12-14T12:07:44;99358.94;;;15.77;50.86
9893;BME280;4985;49.092;8.542;2023-12-14T12:10:10;99358.94;;;15.77;50.79
9893;BME280;4985;49.092;8.542;2023-12-14T12:12:36;99361.41;;;15.79;50.73
9893;BME280;4985;49.092;8.542;2023-12-14T12:15:01;99361.41;;;15.79;50.85
9893;BME280;4985;49.092;8.542;2023-12-14T12:17:26;99366.91;;;15.77;50.93
9893;BME280;4985;49.092;8.542;2023-12-14T12:19:52;99367.53;;;15.79;50.72
9893;BME280;4985;49.092;8.542;2023-12-14T12:22:17;99370.19;;;15.79;51.07
9893;BME280;4985;49.092;8.542;2023-12-14T12:24:42;99371.00;;;15.80;50.82
9893;BME280;4985;49.092;8.542;2023-12-14T12:27:08;99375.28;;;15.81;50.85
9893;BME280;4985;49.092;8.542;2023-12-14T12:29:34;99378.94;;;15.80;50.59
9893;BME280;4985;49.092;8.542;2023-12-14T12:31:59;99381.63;;;15.80;50.76
9893;BME280;4985;49.092;8.542;2023-12-14T12:34:25;99380.59;;;15.81;50.56
9893;BME280;4985;49.092;8.542;2023-12-14T12:36:50;99387.53;;;15.82;50.65
9893;BME280;4985;49.092;8.542;2023-12-14T12:39:16;99374.66;;;15.79;50.83
9893;BME280;4985;49.092;8.542;2023-12-14T12:41:42;99377.31;;;15.79;50.80
9893;BME280;4985;49.092;8.542;2023-12-14T12:44:07;99384.25;;;15.80;50.75
9893;BME280;4985;49.092;8.542;2023-12-14T12:46:34;99384.25;;;15.80;50.67
9893;BME280;4985;49.092;8.542;2023-12-14T12:49:04;99384.25;;;15.80;50.61
9893;BME280;4985;49.092;8.542;2023-12-14T12:51:30;99383.44;;;15.79;50.71
9893;BME280;4985;49.092;8.542;2023-12-14T12:53:58;99390.38;;;15.80;50.83
9893;BME280;4985;49.092;8.542;2023-12-14T12:56:26;99397.53;;;15.80;50.57
9893;BME280;4985;49.092;8.542;2023-12-14T12:58:52;99391.22;;;15.81;50.44
9893;BME280;4985;49.092;8.542;2023-12-14T13:01:22;99390.38;;;15.80;50.65
9893;BME280;4985;49.092;8.542;2023-12-14T13:03:54;99393.88;;;15.81;50.79
9893;BME280;4985;49.092;8.542;2023-12-14T13:06:23;99392.44;;;15.78;50.99
9893;BME280;4985;49.092;8.542;2023-12-14T13:08:48;99403.84;;;15.79;50.90
9893;BME280;4985;49.092;8.542;2023-12-14T13:11:13;99403.84;;;15.79;51.00
9893;BME280;4985;49.092;8.542;2023-12-14T13:13:40;99406.50;;;15.79;50.67
9893;BME280;4985;49.092;8.542;2023-12-14T13:16:05;99400.59;;;15.77;51.00
9893;BME280;4985;49.092;8.542;2023-12-14T13:18:31;99413.84;;;15.77;50.66
9893;BME280;4985;49.092;8.542;2023-12-14T13:20:56;99411.00;;;15.78;50.73
9893;BME280;4985;49.092;8.542;2023-12-14T13:23:22;99413.03;;;15.76;50.96
9893;BME280;4985;49.092;8.542;2023-12-14T13:25:47;99413.66;;;15.78;50.82